NCAR-RAP Real-Time Weather Data

Output produced by METARs form (25 August 2019  22:54 UTC)
found at http://weather.rap.ucar.edu/surface/
 
KBGR 252153Z 06006KT 10SM FEW070 23/06 A3032 RMK AO2 SLP264 T02280061
KBGR 252053Z 07007KT 10SM FEW070 23/05 A3032 RMK AO2 SLP266 T02330050 56015
KBGR 251953Z 05008KT 10SM FEW070 23/03 A3033 RMK AO2 SLP268 T02330033
KBGR 251853Z 10007KT 10SM CLR 23/08 A3035 RMK AO2 SLP275 T02280078
KBGR 251753Z 06007KT 10SM CLR 23/09 A3037 RMK AO2 SLP281 T02280089 10228 20139 58017
KBGR 251653Z 36006KT 10SM CLR 22/08 A3038 RMK AO2 SLP285 T02220083
KBGR 251553Z 36006KT 10SM CLR 21/08 A3041 RMK AO2 SLP295 T02060078
KBGR 251453Z 06005KT 10SM FEW025 19/08 A3042 RMK AO2 SLP298 T01890083 58001
KBGR 251353Z 03004KT 10SM CLR 17/10 A3042 RMK AO2 SLP301 T01720100
KBGR 251253Z 06007KT 10SM CLR 16/11 A3042 RMK AO2 SLP301 T01560106
KBGR 251153Z 00000KT 10SM CLR 14/11 A3042 RMK AO2 SLP299 T01390111 10139 20094 53014
KBGR 251053Z 00000KT 10SM BCFG CLR 11/10 A3040 RMK AO2 SLP293 T01110100
KBGR 250953Z 00000KT 10SM BCFG CLR 11/09 A3038 RMK AO2 SLP287 T01060094
KBGR 250853Z 36004KT 10SM CLR 10/09 A3038 RMK AO2 SLP285 T01000089 53006
KBGR 250753Z 03003KT 10SM CLR 11/09 A3036 RMK AO2 SLP280 T01060094